createdAt,value
2017-04-04T00:00:52.308Z,68.53
2017-04-04T00:02:01.990Z,68.24
2017-04-04T00:03:10.950Z,68.34
2017-04-04T00:04:20.073Z,68.72
2017-04-04T00:05:29.438Z,68.34
2017-04-04T00:06:38.388Z,68.57
2017-04-04T00:07:47.348Z,68.53
2017-04-04T00:08:56.692Z,68.44
2017-04-04T00:10:05.640Z,68.72
2017-04-04T00:11:15.676Z,68.34
2017-04-04T00:12:25.102Z,68.76
2017-04-04T00:13:34.916Z,68.53
2017-04-04T00:14:43.869Z,68.72
2017-04-04T00:15:52.824Z,68.53
2017-04-04T00:17:04.502Z,68.53
2017-04-04T00:18:14.506Z,68.82
2017-04-04T00:19:24.050Z,69.1
2017-04-04T00:20:33.585Z,68.72
2017-04-04T00:21:42.844Z,69.1
2017-04-04T00:22:52.795Z,68.95
2017-04-04T00:24:03.039Z,69.04
2017-04-04T00:25:13.344Z,69.14
2017-04-04T00:26:22.505Z,69.23
2017-04-04T00:27:31.557Z,69.14
2017-04-04T00:28:42.209Z,69.04
2017-04-04T00:29:51.415Z,69.14
2017-04-04T00:31:00.375Z,69.04
2017-04-04T00:32:09.416Z,68.95
2017-04-04T00:33:18.777Z,68.85
2017-04-04T00:34:28.026Z,69.33
2017-04-04T00:35:39.416Z,69.33
2017-04-04T00:36:50.278Z,69.04
2017-04-04T00:38:00.520Z,69.14
2017-04-04T00:39:09.798Z,69.04
2017-04-04T00:40:19.729Z,68.76
2017-04-04T00:41:28.685Z,69.14
2017-04-04T00:42:37.643Z,69.14
2017-04-04T00:43:46.687Z,69.23
2017-04-04T00:44:57.131Z,69.14
2017-04-04T00:46:06.741Z,69.04
2017-04-04T00:47:15.698Z,68.85
2017-04-04T00:48:24.655Z,69.14
2017-04-04T00:49:33.966Z,68.85
2017-04-04T00:50:42.927Z,68.95
2017-04-04T00:51:52.130Z,69.23
2017-04-04T00:53:01.253Z,69.14
2017-04-04T00:54:10.216Z,68.47
2017-04-04T00:55:19.186Z,68.57
2017-04-04T00:56:29.146Z,68.66
2017-04-04T00:57:38.351Z,68.76
2017-04-04T00:58:47.306Z,68.66
2017-04-04T00:59:56.260Z,68.76
2017-04-04T01:01:05.207Z,68.57
2017-04-04T01:02:14.164Z,68.85
2017-04-04T01:03:23.365Z,68.57
2017-04-04T01:04:32.888Z,68.85
2017-04-04T01:05:42.673Z,68.72
2017-04-04T01:06:51.654Z,68.66
2017-04-04T01:08:00.690Z,68.57
2017-04-04T01:09:09.944Z,68.82
2017-04-04T01:10:19.756Z,68.47
2017-04-04T01:11:29.494Z,68.57
2017-04-04T01:12:38.453Z,68.66
2017-04-04T01:13:47.888Z,68.63
2017-04-04T01:14:58.392Z,68.44
2017-04-04T01:16:07.348Z,69.04
2017-04-04T01:17:17.333Z,69.23
2017-04-04T01:18:26.301Z,68.85
2017-04-04T01:19:35.788Z,68.85
2017-04-04T01:20:45.726Z,68.76
2017-04-04T01:21:54.685Z,69.23
2017-04-04T01:23:03.643Z,69.14
2017-04-04T01:24:12.597Z,69.23
2017-04-04T01:25:21.637Z,69.14
2017-04-04T01:26:31.334Z,69.14
2017-04-04T01:27:41.175Z,69.2
2017-04-04T01:28:50.217Z,69.04
2017-04-04T01:29:59.164Z,69.01
2017-04-04T01:31:08.122Z,69.04
2017-04-04T01:32:17.374Z,69.33
2017-04-04T01:33:26.332Z,69.14
2017-04-04T01:34:35.656Z,69.1
2017-04-04T01:35:44.616Z,68.82
2017-04-04T01:36:53.726Z,69.01
2017-04-04T01:38:02.978Z,68.82
2017-04-04T01:39:11.934Z,69.01
2017-04-04T01:40:20.884Z,69.29
2017-04-04T01:41:29.844Z,69.29
2017-04-04T01:42:40.135Z,69.39
2017-04-04T01:43:49.409Z,69.58
2017-04-04T01:44:58.358Z,69.39
2017-04-04T01:46:07.307Z,69.29
2017-04-04T01:47:16.621Z,69.39
2017-04-04T01:48:25.575Z,69.39
2017-04-04T01:49:34.782Z,69.39
2017-04-04T01:50:43.817Z,69.29
2017-04-04T01:51:52.969Z,69.58
2017-04-04T01:53:01.916Z,69.29
2017-04-04T01:54:10.872Z,69.29
2017-04-04T01:55:20.117Z,69.2
2017-04-04T01:56:29.965Z,69.29
2017-04-04T01:57:39.637Z,69.48
2017-04-04T01:58:48.585Z,69.48
2017-04-04T01:59:57.942Z,69.77
2017-04-04T02:01:07.558Z,69.77
2017-04-04T02:02:16.682Z,69.77
2017-04-04T02:03:25.703Z,70.25
2017-04-04T02:04:35.106Z,69.87
2017-04-04T02:05:44.163Z,69.87
2017-04-04T02:06:54.749Z,70.28
2017-04-04T02:08:05.546Z,70.09
2017-04-04T02:09:14.991Z,70.28
2017-04-04T02:10:24.293Z,70.25
2017-04-04T02:11:33.394Z,70.15
2017-04-04T02:12:42.597Z,70.28
2017-04-04T02:13:51.728Z,70.09
2017-04-04T02:15:01.556Z,70.25
2017-04-04T02:16:10.514Z,70
2017-04-04T02:17:19.564Z,70.25
2017-04-04T02:18:29.551Z,70.25
2017-04-04T02:19:39.122Z,70.44
2017-04-04T02:20:48.074Z,70.15
2017-04-04T02:21:57.031Z,70.06
2017-04-04T02:23:05.983Z,70.06
2017-04-04T02:24:15.716Z,70.34
2017-04-04T02:25:24.682Z,70.72
2017-04-04T02:26:33.641Z,71.01
2017-04-04T02:27:43.074Z,70.92
2017-04-04T02:28:52.118Z,71.2
2017-04-04T02:30:01.483Z,71.58
2017-04-04T02:31:11.215Z,72.16
2017-04-04T02:32:20.170Z,71.96
2017-04-04T02:33:29.156Z,71.96
2017-04-04T02:34:38.125Z,72.34
2017-04-04T02:35:47.367Z,72.16
2017-04-04T02:36:56.321Z,72.12
2017-04-04T02:38:05.275Z,72.31
2017-04-04T02:39:14.226Z,72.41
2017-04-04T02:40:23.174Z,72.16
2017-04-04T02:41:32.386Z,72.53
2017-04-04T02:42:41.344Z,72.88
2017-04-04T02:43:50.305Z,72.63
2017-04-04T02:44:59.256Z,72.6
2017-04-04T02:46:08.206Z,72.53
2017-04-04T02:47:17.408Z,73.07
2017-04-04T02:48:26.368Z,72.63
2017-04-04T02:49:35.320Z,72.63
2017-04-04T02:50:44.283Z,72.88
2017-04-04T02:51:53.235Z,72.92
2017-04-04T02:53:02.438Z,73.07
2017-04-04T02:54:11.394Z,72.88
2017-04-04T02:55:20.667Z,72.92
2017-04-04T02:56:29.629Z,73.26
2017-04-04T02:57:38.588Z,73.26
2017-04-04T02:58:47.787Z,73.11
2017-04-04T02:59:56.741Z,73.49
2017-04-04T03:01:05.781Z,73.07
2017-04-04T03:02:14.734Z,72.97
2017-04-04T03:03:23.700Z,73.3
2017-04-04T03:04:32.905Z,73.39
2017-04-04T03:05:41.863Z,72.92
2017-04-04T03:06:50.826Z,73.21
2017-04-04T03:07:59.780Z,73.11
2017-04-04T03:09:08.737Z,73.3
2017-04-04T03:10:17.937Z,73.65
2017-04-04T03:11:26.892Z,73.65
2017-04-04T03:12:35.844Z,73.74
2017-04-04T03:13:44.797Z,73.83
2017-04-04T03:14:53.752Z,73.74
2017-04-04T03:16:03.041Z,73.65
2017-04-04T03:17:11.990Z,73.74
2017-04-04T03:18:20.940Z,73.55
2017-04-04T03:19:29.890Z,73.74
2017-04-04T03:20:38.842Z,73.36
2017-04-04T03:21:48.043Z,73.36
2017-04-04T03:22:57.001Z,73.36
2017-04-04T03:24:05.956Z,73.3
2017-04-04T03:25:15.078Z,72.88
2017-04-04T03:26:24.030Z,72.92
2017-04-04T03:27:33.231Z,72.82
2017-04-04T03:28:42.187Z,72.82
2017-04-04T03:29:51.227Z,73.26
2017-04-04T03:31:00.176Z,73.45
2017-04-04T03:32:09.129Z,73.26
2017-04-04T03:33:18.390Z,73.07
2017-04-04T03:34:27.432Z,73.17
2017-04-04T03:35:36.388Z,73.45
2017-04-04T03:36:45.347Z,73.36
2017-04-04T03:37:54.306Z,73.36
2017-04-04T03:39:03.599Z,73.11
2017-04-04T03:40:12.549Z,73.58
2017-04-04T03:41:22.088Z,72.92
2017-04-04T03:42:31.045Z,72.97
2017-04-04T03:43:39.994Z,72.97
2017-04-04T03:44:49.521Z,73.21
2017-04-04T03:45:58.479Z,73.21
2017-04-04T03:47:07.435Z,73.11
2017-04-04T03:48:16.388Z,73.01
2017-04-04T03:49:25.350Z,73.07
2017-04-04T03:50:34.644Z,73.01
2017-04-04T03:51:43.687Z,72.82
2017-04-04T03:52:52.644Z,73.01
2017-04-04T03:54:01.602Z,73.11
2017-04-04T03:55:10.920Z,72.92
2017-04-04T03:56:20.180Z,73.49
2017-04-04T03:57:29.133Z,73.07
2017-04-04T03:58:38.085Z,73.36
2017-04-04T03:59:47.036Z,73.65
2017-04-04T04:00:55.994Z,73.74
2017-04-04T04:02:05.254Z,73.74
2017-04-04T04:03:14.212Z,73.74
2017-04-04T04:04:23.165Z,73.74
2017-04-04T04:05:32.118Z,73.83
2017-04-04T04:06:41.160Z,73.87
2017-04-04T04:07:50.413Z,73.58
2017-04-04T04:08:59.371Z,73.77
2017-04-04T04:10:08.326Z,73.87
2017-04-04T04:11:17.277Z,73.68
2017-04-04T04:12:26.241Z,73.83
2017-04-04T04:13:35.501Z,73.83
2017-04-04T04:14:44.452Z,73.74
2017-04-04T04:15:53.494Z,74.21
2017-04-04T04:17:02.448Z,74.02
2017-04-04T04:18:11.401Z,74.02
2017-04-04T04:19:20.710Z,74.12
2017-04-04T04:20:29.671Z,74.21
2017-04-04T04:21:38.627Z,74.31
2017-04-04T04:22:47.584Z,74.73
2017-04-04T04:23:56.528Z,74.54
2017-04-04T04:25:05.733Z,74.6
2017-04-04T04:26:14.688Z,74.5
2017-04-04T04:27:23.639Z,74.21
2017-04-04T04:28:32.592Z,74.69
2017-04-04T04:29:41.544Z,74.69
2017-04-04T04:30:50.806Z,74.69
2017-04-04T04:31:59.759Z,74.79
2017-04-04T04:33:08.720Z,74.88
2017-04-04T04:34:17.763Z,75.36
2017-04-04T04:35:27.040Z,75.45
2017-04-04T04:36:36.244Z,75.26
2017-04-04T04:37:45.195Z,75.36
2017-04-04T04:38:54.150Z,75.64
2017-04-04T04:40:03.110Z,75.84
2017-04-04T04:41:12.067Z,75.64
2017-04-04T04:42:21.321Z,76.12
2017-04-04T04:43:30.316Z,76.31
2017-04-04T04:44:39.268Z,76.12
2017-04-04T04:45:48.218Z,76.21
2017-04-04T04:46:57.181Z,76.21
2017-04-04T04:48:06.385Z,76.21
2017-04-04T04:49:15.337Z,76.21
2017-04-04T04:50:24.295Z,76.12
2017-04-04T04:51:33.338Z,75.84
2017-04-04T04:52:42.292Z,76.21
2017-04-04T04:53:51.551Z,75.64
2017-04-04T04:55:00.503Z,75.45
2017-04-04T04:56:09.463Z,75.84
2017-04-04T04:57:18.417Z,75.64
2017-04-04T04:58:27.372Z,75.64
2017-04-04T04:59:36.624Z,75.16
2017-04-04T05:00:45.587Z,75.55
2017-04-04T05:01:54.629Z,75.45
2017-04-04T05:03:03.594Z,75.74
2017-04-04T05:04:12.546Z,75.55
2017-04-04T05:05:21.759Z,75.45
2017-04-04T05:06:30.859Z,75.74
2017-04-04T05:07:39.815Z,75.74
2017-04-04T05:08:48.772Z,75.64
2017-04-04T05:09:57.812Z,75.84
2017-04-04T05:11:07.191Z,75.93
2017-04-04T05:12:16.151Z,75.74
2017-04-04T05:13:25.107Z,75.74
2017-04-04T05:14:34.074Z,76.03
2017-04-04T05:15:43.028Z,75.64
2017-04-04T05:16:52.280Z,75.49
2017-04-04T05:18:01.236Z,75.55
2017-04-04T05:19:10.191Z,75.4
2017-04-04T05:20:19.144Z,75.59
2017-04-04T05:21:28.100Z,74.73
2017-04-04T05:22:37.490Z,75.3
2017-04-04T05:23:46.446Z,75.2
2017-04-04T05:24:55.402Z,75.11
2017-04-04T05:26:04.358Z,75.11
2017-04-04T05:27:13.309Z,74.73
2017-04-04T05:28:22.561Z,74.63
2017-04-04T05:29:31.518Z,74.63
2017-04-04T05:30:40.473Z,74.73
2017-04-04T05:31:49.427Z,74.35
2017-04-04T05:32:58.388Z,75.01
2017-04-04T05:34:07.589Z,74.54
2017-04-04T05:35:16.644Z,75.01
2017-04-04T05:36:25.599Z,74.25
2017-04-04T05:37:34.554Z,74.35
2017-04-04T05:38:43.599Z,74.35
2017-04-04T05:39:52.852Z,74.25
2017-04-04T05:41:01.810Z,74.25
2017-04-04T05:42:10.784Z,74.16
2017-04-04T05:43:19.742Z,74.35
2017-04-04T05:44:28.784Z,73.83
2017-04-04T05:45:38.044Z,74.21
2017-04-04T05:46:47.080Z,74.44
2017-04-04T05:47:56.036Z,74.16
2017-04-04T05:49:04.994Z,74.12
2017-04-04T05:50:13.946Z,73.65
2017-04-04T05:51:23.205Z,74.31
2017-04-04T05:52:32.199Z,74.4
2017-04-04T05:53:41.152Z,74.21
2017-04-04T05:54:50.193Z,74.5
2017-04-04T05:55:59.155Z,74.21
2017-04-04T05:57:09.220Z,74.02
2017-04-04T05:58:18.172Z,74.5
2017-04-04T05:59:27.124Z,74.5
2017-04-04T06:00:36.075Z,74.12
2017-04-04T06:01:45.120Z,73.93
2017-04-04T06:02:54.372Z,74.69
2017-04-04T06:04:03.328Z,74.6
2017-04-04T06:05:12.282Z,74.5
2017-04-04T06:06:21.237Z,74.31
2017-04-04T06:07:30.193Z,74.69
2017-04-04T06:08:39.453Z,74.69
2017-04-04T06:09:48.493Z,74.69
2017-04-04T06:10:57.453Z,74.69
2017-04-04T06:12:06.413Z,74.31
2017-04-04T06:13:15.374Z,74.21
2017-04-04T06:14:24.646Z,74.02
2017-04-04T06:15:35.191Z,74.12
2017-04-04T06:16:44.236Z,73.65
2017-04-04T06:17:53.198Z,73.65
2017-04-04T06:19:02.161Z,73.39
2017-04-04T06:20:11.422Z,73.87
2017-04-04T06:21:20.375Z,73.49
2017-04-04T06:22:29.340Z,73.01
2017-04-04T06:23:38.290Z,73.11
2017-04-04T06:24:47.245Z,73.01
2017-04-04T06:25:56.500Z,73.11
2017-04-04T06:27:05.455Z,72.44
2017-04-04T06:28:14.421Z,72.72
2017-04-04T06:29:23.372Z,72.63
2017-04-04T06:30:32.324Z,72.63
2017-04-04T06:31:41.578Z,72.63
2017-04-04T06:32:50.620Z,72.63
2017-04-04T06:33:59.572Z,72.63
2017-04-04T06:35:08.607Z,72.53
2017-04-04T06:36:17.564Z,72.44
2017-04-04T06:37:26.771Z,71.87
2017-04-04T06:38:35.727Z,71.68
2017-04-04T06:39:44.686Z,71.96
2017-04-04T06:40:53.867Z,72.16
2017-04-04T06:42:02.958Z,71.96
2017-04-04T06:43:12.209Z,72.16
2017-04-04T06:44:21.201Z,72.06
2017-04-04T06:45:30.149Z,72.25
2017-04-04T06:46:39.147Z,72.53
2017-04-04T06:47:48.443Z,72.25
2017-04-04T06:48:57.730Z,72.25
2017-04-04T06:50:06.804Z,71.96
2017-04-04T06:51:15.878Z,71.77
2017-04-04T06:52:24.834Z,71.87
2017-04-04T06:53:33.792Z,71.87
2017-04-04T06:54:43.002Z,71.96
2017-04-04T06:55:52.691Z,71.77
2017-04-04T06:57:02.164Z,71.77
2017-04-04T06:58:11.219Z,71.77
2017-04-04T06:59:20.261Z,71.96
2017-04-04T07:00:29.557Z,71.68
2017-04-04T07:01:38.509Z,71.68
2017-04-04T07:02:47.478Z,71.01
2017-04-04T07:03:56.613Z,71.52
2017-04-04T07:05:06.016Z,71.43
2017-04-04T07:06:15.272Z,71.39
2017-04-04T07:07:24.227Z,70.92
2017-04-04T07:08:33.208Z,71.77
2017-04-04T07:09:42.181Z,71.58
2017-04-04T07:10:51.305Z,71.48
2017-04-04T07:12:00.560Z,71.58
2017-04-04T07:13:09.613Z,72.06
2017-04-04T07:14:18.571Z,71.87
2017-04-04T07:15:27.525Z,71.96
2017-04-04T07:16:36.480Z,71.77
2017-04-04T07:17:45.688Z,71.87
2017-04-04T07:18:54.975Z,71.48
2017-04-04T07:20:04.023Z,71.48
2017-04-04T07:21:12.976Z,71.04
2017-04-04T07:22:21.980Z,71.04
2017-04-04T07:23:31.274Z,70.95
2017-04-04T07:24:40.225Z,70.76
2017-04-04T07:25:49.310Z,71.11
2017-04-04T07:26:58.264Z,70.57
2017-04-04T07:28:07.221Z,70.86
2017-04-04T07:29:16.511Z,70.57
2017-04-04T07:30:25.541Z,70.67
2017-04-04T07:31:34.502Z,70.53
2017-04-04T07:32:43.457Z,71.01
2017-04-04T07:33:52.422Z,71.01
2017-04-04T07:35:01.737Z,70.72
2017-04-04T07:36:10.888Z,70.92
2017-04-04T07:37:19.858Z,71.39
2017-04-04T07:38:29.014Z,71.58
2017-04-04T07:39:38.127Z,71.48
2017-04-04T07:40:47.516Z,71.39
2017-04-04T07:41:56.704Z,70.92
2017-04-04T07:43:05.819Z,71.39
2017-04-04T07:44:14.981Z,71.39
2017-04-04T07:45:24.177Z,71.01
2017-04-04T07:46:33.703Z,71.48
2017-04-04T07:47:42.822Z,71.48
2017-04-04T07:48:51.964Z,71.48
2017-04-04T07:50:01.110Z,71.2
2017-04-04T07:51:10.120Z,70.86
2017-04-04T07:52:19.663Z,70.57
2017-04-04T07:53:28.684Z,71.23
2017-04-04T07:54:37.745Z,71.01
2017-04-04T07:55:46.703Z,71.01
2017-04-04T07:56:55.731Z,71.01
2017-04-04T07:58:05.070Z,71.04
2017-04-04T07:59:14.129Z,71.01
2017-04-04T08:00:23.360Z,71.11
2017-04-04T08:01:32.440Z,70.92
2017-04-04T08:02:41.567Z,70.95
2017-04-04T08:03:50.910Z,70.53
2017-04-04T08:05:00.226Z,70.76
2017-04-04T08:06:09.624Z,70.76
2017-04-04T08:07:18.695Z,71.04
2017-04-04T08:08:27.797Z,70.76
2017-04-04T08:09:37.184Z,70.53
2017-04-04T08:10:46.387Z,70.76
2017-04-04T08:11:55.487Z,70.28
2017-04-04T08:13:04.698Z,70.38
2017-04-04T08:14:13.817Z,70
2017-04-04T08:15:23.408Z,70
2017-04-04T08:16:32.510Z,70.09
2017-04-04T08:17:41.870Z,69.9
2017-04-04T08:18:50.964Z,70
2017-04-04T08:20:00.086Z,70.28
2017-04-04T08:21:09.661Z,70.19
2017-04-04T08:22:18.623Z,70.09
2017-04-04T08:23:27.579Z,70.19
2017-04-04T08:24:36.694Z,70.19
2017-04-04T08:25:45.788Z,69.71
2017-04-04T08:26:55.621Z,70.28
2017-04-04T08:28:04.708Z,69.9
2017-04-04T08:29:13.789Z,69.9
2017-04-04T08:30:22.804Z,69.81
2017-04-04T08:31:31.786Z,70.28
2017-04-04T08:32:41.134Z,70.38
2017-04-04T08:33:50.454Z,70.19
2017-04-04T08:34:59.456Z,70.19
2017-04-04T08:36:08.454Z,70.57
2017-04-04T08:37:17.560Z,70.47
2017-04-04T08:38:27.741Z,70.28
2017-04-04T08:39:37.007Z,70.38
2017-04-04T08:40:46.017Z,70.38
2017-04-04T08:41:54.973Z,69.81
2017-04-04T08:43:03.929Z,69.52
2017-04-04T08:44:13.192Z,70.09
2017-04-04T08:45:22.143Z,69.52
2017-04-04T08:46:31.110Z,69.43
2017-04-04T08:47:40.191Z,68.85
2017-04-04T08:48:49.195Z,68.85
2017-04-04T08:49:58.603Z,69.33
2017-04-04T08:51:07.765Z,68.47
2017-04-04T08:52:16.850Z,69.33
2017-04-04T08:53:25.965Z,68.57
2017-04-04T08:54:34.925Z,68.66
2017-04-04T08:55:44.183Z,68.28
2017-04-04T08:56:53.138Z,67.83
2017-04-04T08:58:02.103Z,67.74
2017-04-04T08:59:11.060Z,67.17
2017-04-04T09:00:20.017Z,67.17
2017-04-04T09:01:29.280Z,67.07
2017-04-04T09:02:38.240Z,67.17
2017-04-04T09:03:47.196Z,67.55
2017-04-04T09:04:56.157Z,67.36
2017-04-04T09:06:05.118Z,67.65
2017-04-04T09:07:14.330Z,67.65
2017-04-04T09:08:23.284Z,67.65
2017-04-04T09:09:32.239Z,67.46
2017-04-04T09:10:41.191Z,67.74
2017-04-04T09:11:50.315Z,66.98
2017-04-04T09:12:59.568Z,67.27
2017-04-04T09:14:08.531Z,66.98
2017-04-04T09:15:17.485Z,66.69
2017-04-04T09:16:26.434Z,67.07
2017-04-04T09:17:35.388Z,66.98
2017-04-04T09:18:44.650Z,67.17
2017-04-04T09:19:53.767Z,66.88
2017-04-04T09:21:02.788Z,66.98
2017-04-04T09:22:11.821Z,66.88
2017-04-04T09:23:20.895Z,67.27
2017-04-04T09:24:30.155Z,66.98
2017-04-04T09:25:39.269Z,66.22
2017-04-04T09:26:48.278Z,65.96
2017-04-04T09:27:57.315Z,65.58
2017-04-04T09:29:06.462Z,65.36
2017-04-04T09:30:15.701Z,65.55
2017-04-04T09:31:24.659Z,65.1
2017-04-04T09:32:33.666Z,64.72
2017-04-04T09:33:42.667Z,64.91
2017-04-04T09:34:51.708Z,64.62
2017-04-04T09:36:01.053Z,64.05
2017-04-04T09:37:10.016Z,64.43
2017-04-04T09:38:19.091Z,64.43
2017-04-04T09:39:28.044Z,64.15
2017-04-04T09:40:37.197Z,63.76
2017-04-04T09:41:46.528Z,63.86
2017-04-04T09:42:55.617Z,63.1
2017-04-04T09:44:04.574Z,63.76
2017-04-04T09:45:13.536Z,63.57
2017-04-04T09:46:22.581Z,63.8
2017-04-04T09:47:31.837Z,63.48
2017-04-04T09:48:40.790Z,63.89
2017-04-04T09:49:49.827Z,63.23
2017-04-04T09:50:58.947Z,63.51
2017-04-04T09:52:07.903Z,62.75
2017-04-04T09:53:17.262Z,62.27
2017-04-04T09:54:26.349Z,62.75
2017-04-04T09:55:35.599Z,62.84
2017-04-04T09:56:44.692Z,62.75
2017-04-04T09:57:53.887Z,62.65
2017-04-04T09:59:03.472Z,62.18
2017-04-04T10:00:12.505Z,61.89
2017-04-04T10:01:21.681Z,62.18
2017-04-04T10:02:30.891Z,62.75
2017-04-04T10:03:39.890Z,62.75
2017-04-04T10:04:49.280Z,62.94
2017-04-04T10:05:58.420Z,62.46
2017-04-04T10:07:07.378Z,61.79
2017-04-04T10:08:16.331Z,61.35
2017-04-04T10:09:25.322Z,61.63
2017-04-04T10:10:34.585Z,61.72
2017-04-04T10:11:43.543Z,61.25
2017-04-04T10:12:52.498Z,61.44
2017-04-04T10:14:01.458Z,61.54
2017-04-04T10:15:10.417Z,61.06
2017-04-04T10:16:19.863Z,60.87
2017-04-04T10:17:28.821Z,60.49
2017-04-04T10:18:37.794Z,60.77
2017-04-04T10:19:46.887Z,60.87
2017-04-04T10:20:55.837Z,60.68
2017-04-04T10:22:05.054Z,60.52
2017-04-04T10:23:14.021Z,60.04
2017-04-04T10:24:22.974Z,59.84
2017-04-04T10:25:31.933Z,60.71
2017-04-04T10:26:40.892Z,60.58
2017-04-04T10:27:50.570Z,60.96
2017-04-04T10:28:59.529Z,60.96
2017-04-04T10:30:08.485Z,60.77
2017-04-04T10:31:17.449Z,60.71
2017-04-04T10:32:26.490Z,60.39
2017-04-04T10:33:35.793Z,60.3
2017-04-04T10:34:44.757Z,60.71
2017-04-04T10:35:53.719Z,60.3
2017-04-04T10:37:03.092Z,60.13
2017-04-04T10:38:12.058Z,60.1
2017-04-04T10:39:21.428Z,59.63
2017-04-04T10:40:30.410Z,60.2
2017-04-04T10:41:39.395Z,59.72
2017-04-04T10:42:48.380Z,59.81
2017-04-04T10:43:57.395Z,60.01
2017-04-04T10:45:06.636Z,59.56
2017-04-04T10:46:15.703Z,59.37
2017-04-04T10:47:24.688Z,58.8
2017-04-04T10:48:33.667Z,58.7
2017-04-04T10:49:42.650Z,58.22
2017-04-04T10:50:51.933Z,57.87
2017-04-04T10:52:00.913Z,57.65
2017-04-04T10:53:09.937Z,57.68
2017-04-04T10:54:19.012Z,57.29
2017-04-04T10:55:28.082Z,57.68
2017-04-04T10:56:37.369Z,57.29
2017-04-04T10:57:46.356Z,57.2
2017-04-04T10:58:55.334Z,57.01
2017-04-04T11:00:04.325Z,57.2
2017-04-04T11:01:13.304Z,57.17
2017-04-04T11:02:22.626Z,57.01
2017-04-04T11:03:31.606Z,57.29
2017-04-04T11:04:40.586Z,57.39
2017-04-04T11:05:49.559Z,57.01
2017-04-04T11:06:58.550Z,57.39
2017-04-04T11:08:08.162Z,57.29
2017-04-04T11:09:17.139Z,56.82
2017-04-04T11:10:26.122Z,57.2
2017-04-04T11:11:35.096Z,57.01
2017-04-04T11:12:44.054Z,56.62
2017-04-04T11:13:53.377Z,56.62
2017-04-04T11:15:02.589Z,56.91
2017-04-04T11:16:11.667Z,57.39
2017-04-04T11:17:20.669Z,57.58
2017-04-04T11:18:29.627Z,56.62
2017-04-04T11:19:38.882Z,56.53
2017-04-04T11:20:47.857Z,56.34
2017-04-04T11:21:57.141Z,56.62
2017-04-04T11:23:06.276Z,56.53
2017-04-04T11:24:15.236Z,56.53
2017-04-04T11:25:25.144Z,56.05
2017-04-04T11:26:34.100Z,55.96
2017-04-04T11:27:43.061Z,56.05
2017-04-04T11:28:52.021Z,55.86
2017-04-04T11:30:01.070Z,55.86
2017-04-04T11:31:10.329Z,55.47
2017-04-04T11:32:19.295Z,55.67
2017-04-04T11:33:28.253Z,55.51
2017-04-04T11:34:37.207Z,55.79
2017-04-04T11:35:46.163Z,55.22
2017-04-04T11:36:55.418Z,54.74
2017-04-04T11:38:04.492Z,53.81
2017-04-04T11:39:13.451Z,53.59
2017-04-04T11:40:22.410Z,54.19
2017-04-04T11:41:31.367Z,53.91
2017-04-04T11:42:40.652Z,53.14
2017-04-04T11:43:49.607Z,53.62
2017-04-04T11:44:58.576Z,53.42
2017-04-04T11:46:07.799Z,52.75
2017-04-04T11:47:16.892Z,53.23
2017-04-04T11:48:26.148Z,53.23
2017-04-04T11:49:35.187Z,54
2017-04-04T11:50:44.152Z,52.95
2017-04-04T11:51:53.116Z,54
2017-04-04T11:53:02.079Z,53.42
2017-04-04T11:54:11.385Z,52.75
2017-04-04T11:55:20.341Z,53.16
2017-04-04T11:56:29.306Z,53.04
2017-04-04T11:57:38.268Z,53.33
2017-04-04T11:58:47.232Z,53.33
2017-04-04T11:59:56.496Z,54
2017-04-04T12:01:05.453Z,53.33
2017-04-04T12:02:14.419Z,54
2017-04-04T12:03:23.385Z,53.71
2017-04-04T12:04:32.346Z,53.33
2017-04-04T12:05:41.692Z,54.1
2017-04-04T12:06:50.650Z,54.67
2017-04-04T12:07:59.606Z,54.77
2017-04-04T12:09:08.571Z,54
2017-04-04T12:10:17.524Z,54
2017-04-04T12:11:26.871Z,53.62
2017-04-04T12:12:35.829Z,54
2017-04-04T12:13:44.799Z,53.71
2017-04-04T12:14:53.766Z,54.38
2017-04-04T12:16:02.723Z,54
2017-04-04T12:17:11.991Z,54.57
2017-04-04T12:18:20.951Z,54.36
2017-04-04T12:19:29.906Z,54.77
2017-04-04T12:20:38.859Z,55.22
2017-04-04T12:21:47.818Z,55.69
2017-04-04T12:22:57.078Z,55.69
2017-04-04T12:24:06.039Z,55.69
2017-04-04T12:25:14.997Z,55.69
2017-04-04T12:26:23.957Z,55.88
2017-04-04T12:27:32.917Z,56.65
2017-04-04T12:28:42.174Z,56.46
2017-04-04T12:29:51.134Z,56.37
2017-04-04T12:31:00.184Z,56.46
2017-04-04T12:32:09.142Z,56.75
2017-04-04T12:33:18.146Z,56.37
2017-04-04T12:34:27.402Z,56.56
2017-04-04T12:35:36.354Z,56.46
2017-04-04T12:36:45.310Z,56.17
2017-04-04T12:37:54.357Z,56.34
2017-04-04T12:39:03.312Z,56.17
2017-04-04T12:40:12.700Z,56.17
2017-04-04T12:41:21.660Z,56.72
2017-04-04T12:42:30.613Z,56.72
2017-04-04T12:43:39.572Z,56.82
2017-04-04T12:44:48.616Z,56.82
2017-04-04T12:45:57.913Z,57.1
2017-04-04T12:47:06.964Z,57.7
2017-04-04T12:48:15.922Z,58.15
2017-04-04T12:49:24.973Z,58.54
2017-04-04T12:50:33.935Z,58.44
2017-04-04T12:51:43.200Z,58.44
2017-04-04T12:52:52.161Z,58.83
2017-04-04T12:54:01.125Z,59.3
2017-04-04T12:55:10.085Z,59.78
2017-04-04T12:56:19.049Z,60.16
2017-04-04T12:57:28.314Z,60.74
2017-04-04T12:58:37.272Z,60.45
2017-04-04T12:59:46.231Z,60.55
2017-04-04T13:00:55.369Z,60.74
2017-04-04T13:02:04.329Z,60.83
2017-04-04T13:03:13.586Z,60.71
2017-04-04T13:04:22.540Z,60.74
2017-04-04T13:05:31.494Z,60.55
2017-04-04T13:06:40.460Z,60.64
2017-04-04T13:07:49.464Z,60.64
2017-04-04T13:08:58.721Z,60.74
2017-04-04T13:10:07.677Z,60.45
2017-04-04T13:11:16.725Z,60.26
2017-04-04T13:12:25.775Z,60.26
2017-04-04T13:13:34.732Z,60.64
2017-04-04T13:14:43.999Z,60.45
2017-04-04T13:15:52.963Z,60.64
2017-04-04T13:17:01.924Z,60.55
2017-04-04T13:18:10.883Z,60.26
2017-04-04T13:19:19.933Z,60.06
2017-04-04T13:20:29.199Z,59.97
2017-04-04T13:21:38.163Z,59.4
2017-04-04T13:22:47.128Z,59.3
2017-04-04T13:23:56.088Z,59.3
2017-04-04T13:25:05.148Z,59.49
2017-04-04T13:26:14.410Z,59.2
2017-04-04T13:27:23.705Z,59.4
2017-04-04T13:28:32.670Z,59.05
2017-04-04T13:29:41.964Z,59.3
2017-04-04T13:30:50.958Z,59.52
2017-04-04T13:32:00.219Z,59.49
2017-04-04T13:33:09.182Z,59.4
2017-04-04T13:34:18.554Z,59.4
2017-04-04T13:35:27.519Z,59.97
2017-04-04T13:36:36.485Z,59.78
2017-04-04T13:37:45.750Z,59.78
2017-04-04T13:38:54.704Z,59.88
2017-04-04T13:40:03.750Z,59.88
2017-04-04T13:41:12.714Z,59.69
2017-04-04T13:42:21.675Z,59.88
2017-04-04T13:43:30.936Z,59.88
2017-04-04T13:44:39.979Z,59.4
2017-04-04T13:45:48.934Z,59.59
2017-04-04T13:46:57.892Z,58.54
2017-04-04T13:48:07.259Z,57.58
2017-04-04T13:49:16.518Z,57.68
2017-04-04T13:50:25.483Z,57.39
2017-04-04T13:51:34.440Z,57.29
2017-04-04T13:52:43.401Z,57.48
2017-04-04T13:53:52.361Z,57.1
2017-04-04T13:55:01.618Z,56.62
2017-04-04T13:56:10.578Z,56.05
2017-04-04T13:57:19.554Z,55.76
2017-04-04T13:58:28.513Z,55.76
2017-04-04T13:59:37.563Z,55.57
2017-04-04T14:00:46.820Z,55.96
2017-04-04T14:01:55.773Z,55.96
2017-04-04T14:03:04.736Z,55.86
2017-04-04T14:04:13.690Z,55.86
2017-04-04T14:05:22.659Z,55.86
2017-04-04T14:06:31.919Z,55.96
2017-04-04T14:07:40.873Z,55.96
2017-04-04T14:08:49.920Z,55.67
2017-04-04T14:09:58.960Z,55.76
2017-04-04T14:11:07.922Z,55.47
2017-04-04T14:12:17.274Z,56.4
2017-04-04T14:13:26.231Z,56.53
2017-04-04T14:14:35.189Z,56.43
2017-04-04T14:15:44.151Z,56.43
2017-04-04T14:16:53.198Z,56.53
2017-04-04T14:18:02.467Z,56.34
2017-04-04T14:19:11.513Z,56.62
2017-04-04T14:20:20.560Z,56.24
2017-04-04T14:21:29.574Z,56.15
2017-04-04T14:22:38.645Z,56.82
2017-04-04T14:23:47.923Z,56.5
2017-04-04T14:24:56.876Z,57.26
2017-04-04T14:26:05.849Z,57.26
2017-04-04T14:27:14.909Z,57.77
2017-04-04T14:28:24.027Z,57.65
2017-04-04T14:29:33.296Z,56.98
2017-04-04T14:30:42.296Z,57.36
2017-04-04T14:31:51.520Z,57.36
2017-04-04T14:33:00.538Z,56.69
2017-04-04T14:34:09.604Z,56.88
2017-04-04T14:35:18.973Z,56.98
2017-04-04T14:36:28.037Z,57.36
2017-04-04T14:37:36.994Z,57.17
2017-04-04T14:38:46.197Z,57.65
2017-04-04T14:39:55.299Z,57.65
2017-04-04T14:41:04.749Z,57.75
2017-04-04T14:42:13.984Z,58.03
2017-04-04T14:43:22.953Z,58.41
2017-04-04T14:44:31.951Z,58.41
2017-04-04T14:45:40.906Z,58.98
2017-04-04T14:46:50.167Z,59.18
2017-04-04T14:47:59.123Z,59.84
2017-04-04T14:49:08.079Z,60.49
2017-04-04T14:50:17.035Z,60.87
2017-04-04T14:51:25.994Z,60.87
2017-04-04T14:52:35.254Z,60.58
2017-04-04T14:53:44.214Z,60.58